createdAt,value
2018-05-15T00:00:04.205Z,15.70
2018-05-15T00:01:04.152Z,15.78
2018-05-15T00:02:04.079Z,15.70
2018-05-15T00:03:04.020Z,15.70
2018-05-15T00:04:03.978Z,15.78
2018-05-15T00:05:03.940Z,15.73
2018-05-15T00:06:03.895Z,15.73
2018-05-15T00:07:03.853Z,15.66
2018-05-15T00:08:03.813Z,15.78
2018-05-15T00:09:03.773Z,15.66
2018-05-15T00:10:03.735Z,15.75
2018-05-15T00:11:03.690Z,15.66
2018-05-15T00:12:03.651Z,15.73
2018-05-15T00:13:03.609Z,15.67
2018-05-15T00:14:03.568Z,15.66
2018-05-15T00:15:03.528Z,15.60
2018-05-15T00:16:03.485Z,15.55
2018-05-15T00:17:03.446Z,15.59
2018-05-15T00:18:03.405Z,15.67
2018-05-15T00:19:03.363Z,15.62
2018-05-15T00:20:03.322Z,15.50
2018-05-15T00:21:03.282Z,15.62
2018-05-15T00:22:03.239Z,15.54
2018-05-15T00:23:03.202Z,15.52
2018-05-15T00:24:03.158Z,15.52
2018-05-15T00:25:03.117Z,15.47
2018-05-15T00:26:03.079Z,15.52
2018-05-15T00:27:03.037Z,15.50
2018-05-15T00:28:02.993Z,15.51
2018-05-15T00:29:02.953Z,15.45
2018-05-15T00:30:02.915Z,15.44
2018-05-15T00:31:02.874Z,15.39
2018-05-15T00:32:02.832Z,15.48
2018-05-15T00:33:02.787Z,15.47
2018-05-15T00:34:02.748Z,15.41
2018-05-15T00:35:02.711Z,15.30
2018-05-15T00:36:02.669Z,15.36
2018-05-15T00:37:02.627Z,15.39
2018-05-15T00:38:02.589Z,15.26
2018-05-15T00:39:02.542Z,15.29
2018-05-15T00:40:02.510Z,15.35
2018-05-15T00:41:02.463Z,15.19
2018-05-15T00:42:02.422Z,15.25
2018-05-15T00:43:02.377Z,15.22
2018-05-15T00:44:02.337Z,15.18
2018-05-15T00:45:02.296Z,15.23
2018-05-15T00:46:02.254Z,15.14
2018-05-15T00:47:02.215Z,15.07
2018-05-15T00:48:02.175Z,15.11
2018-05-15T00:49:02.133Z,15.12
2018-05-15T00:50:02.186Z,15.07
2018-05-15T00:51:02.047Z,15.04
2018-05-15T00:52:02.083Z,15.02
2018-05-15T00:53:01.966Z,15.02
2018-05-15T00:54:01.925Z,14.97
2018-05-15T00:55:01.883Z,15.05
2018-05-15T00:56:01.842Z,15.00
2018-05-15T00:57:01.800Z,14.94
2018-05-15T00:58:01.758Z,14.97
2018-05-15T00:59:01.717Z,14.99
2018-05-15T01:00:01.679Z,14.92
2018-05-15T01:01:01.634Z,14.94
2018-05-15T01:02:01.592Z,14.87
2018-05-15T01:03:01.552Z,14.92
2018-05-15T01:04:01.512Z,14.82
2018-05-15T01:05:01.469Z,14.81
2018-05-15T01:06:01.429Z,14.74
2018-05-15T01:07:01.385Z,14.85
2018-05-15T01:08:01.344Z,14.79
2018-05-15T01:09:01.304Z,14.70
2018-05-15T01:10:01.266Z,14.68
2018-05-15T01:11:01.219Z,14.79
2018-05-15T01:12:01.183Z,14.73
2018-05-15T01:13:01.140Z,14.71
2018-05-15T01:14:01.098Z,14.68
2018-05-15T01:15:01.057Z,14.79
2018-05-15T01:16:01.014Z,14.73
2018-05-15T01:17:00.971Z,14.71
2018-05-15T01:18:00.933Z,14.62
2018-05-15T01:19:00.888Z,14.59
2018-05-15T01:20:00.846Z,14.66
2018-05-15T01:21:00.811Z,14.63
2018-05-15T01:22:00.766Z,14.55
2018-05-15T01:23:00.722Z,14.66
2018-05-15T01:24:00.681Z,14.52
2018-05-15T01:25:00.642Z,14.61
2018-05-15T01:26:00.599Z,14.45
2018-05-15T01:27:00.557Z,14.49
2018-05-15T01:28:00.517Z,14.52
2018-05-15T01:29:00.479Z,14.53
2018-05-15T01:30:00.436Z,14.45
2018-05-15T01:31:00.389Z,14.44
2018-05-15T01:32:00.349Z,14.52
2018-05-15T01:33:00.310Z,14.45
2018-05-15T01:34:00.266Z,14.40
2018-05-15T01:35:00.227Z,14.37
2018-05-15T01:36:00.183Z,14.48
2018-05-15T01:37:00.145Z,14.48
2018-05-15T01:38:00.105Z,14.40
2018-05-15T01:39:00.063Z,14.52
2018-05-15T01:40:00.020Z,14.45
2018-05-15T01:40:59.979Z,14.41
2018-05-15T01:41:59.939Z,14.33
2018-05-15T01:42:59.891Z,14.37
2018-05-15T01:43:59.848Z,14.37
2018-05-15T01:44:59.812Z,14.36
2018-05-15T01:45:59.771Z,14.30
2018-05-15T01:46:59.724Z,14.30
2018-05-15T01:47:59.686Z,14.26
2018-05-15T01:48:59.645Z,14.28
2018-05-15T01:49:59.603Z,14.28
2018-05-15T01:50:59.560Z,14.34
2018-05-15T01:51:59.521Z,14.30
2018-05-15T01:52:59.478Z,14.34
2018-05-15T01:53:59.440Z,14.25
2018-05-15T01:54:59.393Z,14.25
2018-05-15T01:55:59.349Z,14.22
2018-05-15T01:56:59.310Z,14.22
2018-05-15T01:57:59.273Z,14.25
2018-05-15T01:58:59.233Z,14.19
2018-05-15T01:59:59.181Z,14.23
2018-05-15T02:00:59.141Z,14.18
2018-05-15T02:01:59.100Z,14.16
2018-05-15T02:02:59.058Z,14.13
2018-05-15T02:03:59.016Z,14.18
2018-05-15T02:04:58.974Z,14.18
2018-05-15T02:05:58.932Z,14.07
2018-05-15T02:06:58.892Z,14.15
2018-05-15T02:07:58.853Z,14.05
2018-05-15T02:08:58.812Z,14.05
2018-05-15T02:09:58.765Z,14.13
2018-05-15T02:10:58.729Z,14.08
2018-05-15T02:11:58.680Z,14.05
2018-05-15T02:12:58.640Z,14.03
2018-05-15T02:13:58.599Z,14.11
2018-05-15T02:14:58.556Z,14.11
2018-05-15T02:15:58.520Z,14.05
2018-05-15T02:16:58.474Z,14.05
2018-05-15T02:17:58.431Z,14.08
2018-05-15T02:18:58.390Z,14.07
2018-05-15T02:19:58.358Z,14.05
2018-05-15T02:20:58.310Z,14.07
2018-05-15T02:21:58.266Z,14.03
2018-05-15T02:22:58.225Z,14.04
2018-05-15T02:23:58.181Z,14.04
2018-05-15T02:24:58.141Z,14.04
2018-05-15T02:25:58.095Z,14.00
2018-05-15T02:26:58.056Z,14.01
2018-05-15T02:27:58.012Z,14.04
2018-05-15T02:28:57.971Z,13.97
2018-05-15T02:29:57.928Z,14.00
2018-05-15T02:30:57.885Z,13.93
2018-05-15T02:31:57.847Z,13.87
2018-05-15T02:32:57.807Z,13.87
2018-05-15T02:33:57.767Z,13.91
2018-05-15T02:34:57.719Z,13.95
2018-05-15T02:35:57.680Z,13.94
2018-05-15T02:36:57.655Z,13.91
2018-05-15T02:37:57.598Z,13.91
2018-05-15T02:38:57.552Z,13.83
2018-05-15T02:39:57.512Z,13.86
2018-05-15T02:40:57.468Z,13.91
2018-05-15T02:41:57.432Z,13.83
2018-05-15T02:42:57.384Z,13.82
2018-05-15T02:43:57.344Z,13.83
2018-05-15T02:44:57.301Z,13.78
2018-05-15T02:45:57.262Z,13.80
2018-05-15T02:46:57.217Z,13.76
2018-05-15T02:47:57.176Z,13.76
2018-05-15T02:48:57.137Z,13.82
2018-05-15T02:49:57.091Z,13.76
2018-05-15T02:50:57.050Z,13.75
2018-05-15T02:51:57.010Z,13.71
2018-05-15T02:52:56.972Z,13.67
2018-05-15T02:53:56.924Z,13.78
2018-05-15T02:54:56.882Z,13.57
2018-05-15T02:55:56.840Z,13.61
2018-05-15T02:56:56.801Z,13.62
2018-05-15T02:57:56.755Z,13.65
2018-05-15T02:58:56.717Z,13.57
2018-05-15T02:59:56.671Z,13.54
2018-05-15T03:00:56.630Z,13.52
2018-05-15T03:01:56.596Z,13.55
2018-05-15T03:02:56.545Z,13.60
2018-05-15T03:03:56.506Z,13.47
2018-05-15T03:04:56.462Z,13.52
2018-05-15T03:05:56.423Z,13.47
2018-05-15T03:06:56.379Z,13.43
2018-05-15T03:07:56.342Z,13.37
2018-05-15T03:08:56.292Z,13.42
2018-05-15T03:09:56.252Z,13.40
2018-05-15T03:10:56.208Z,13.40
2018-05-15T03:11:56.167Z,13.42
2018-05-15T03:12:56.127Z,13.31
2018-05-15T03:13:56.083Z,13.36
2018-05-15T03:14:56.039Z,13.45
2018-05-15T03:15:55.998Z,13.40
2018-05-15T03:16:55.956Z,13.40
2018-05-15T03:17:55.913Z,13.40
2018-05-15T03:18:55.874Z,13.36
2018-05-15T03:19:55.833Z,13.30
2018-05-15T03:20:55.787Z,13.30
2018-05-15T03:21:55.745Z,13.28
2018-05-15T03:22:55.703Z,13.31
2018-05-15T03:23:55.662Z,13.36
2018-05-15T03:24:55.619Z,13.36
2018-05-15T03:25:55.579Z,13.24
2018-05-15T03:26:55.536Z,13.37
2018-05-15T03:27:55.492Z,13.31
2018-05-15T03:28:55.450Z,13.27
2018-05-15T03:29:55.409Z,13.27
2018-05-15T03:30:55.368Z,13.33
2018-05-15T03:31:55.333Z,13.28
2018-05-15T03:32:55.282Z,13.28
2018-05-15T03:33:55.251Z,13.36
2018-05-15T03:34:55.196Z,13.31
2018-05-15T03:35:55.157Z,13.40
2018-05-15T03:36:55.111Z,13.30
2018-05-15T03:37:55.069Z,13.33
2018-05-15T03:38:55.029Z,13.37
2018-05-15T03:39:54.985Z,13.28
2018-05-15T03:40:54.946Z,13.31
2018-05-15T03:41:54.902Z,13.40
2018-05-15T03:42:54.861Z,13.30
2018-05-15T03:43:54.823Z,13.33
2018-05-15T03:44:54.775Z,13.40
2018-05-15T03:45:54.732Z,13.40
2018-05-15T03:46:54.690Z,13.30
2018-05-15T03:47:54.647Z,13.36
2018-05-15T03:48:54.609Z,13.43
2018-05-15T03:49:54.562Z,13.37
2018-05-15T03:50:54.521Z,13.39
2018-05-15T03:51:54.479Z,13.37
2018-05-15T03:52:54.437Z,13.39
2018-05-15T03:53:54.395Z,13.45
2018-05-15T03:54:54.353Z,13.43
2018-05-15T03:55:54.311Z,13.45
2018-05-15T03:56:54.272Z,13.33
2018-05-15T03:57:54.227Z,13.45
2018-05-15T03:58:54.240Z,13.33
2018-05-15T03:59:54.141Z,13.33
2018-05-15T04:00:54.097Z,13.43
2018-05-15T04:01:54.058Z,13.42
2018-05-15T04:02:54.016Z,13.36
2018-05-15T04:03:53.987Z,13.43
2018-05-15T04:04:53.932Z,13.39
2018-05-15T04:05:53.891Z,13.45
2018-05-15T04:06:53.849Z,13.42
2018-05-15T04:07:53.831Z,13.45
2018-05-15T04:08:53.764Z,13.39
2018-05-15T04:09:53.721Z,13.47
2018-05-15T04:10:53.755Z,13.40
2018-05-15T04:11:53.643Z,13.40
2018-05-15T04:12:53.593Z,13.43
2018-05-15T04:13:53.553Z,13.40
2018-05-15T04:14:53.508Z,13.40
2018-05-15T04:15:53.468Z,13.42
2018-05-15T04:16:53.430Z,13.40
2018-05-15T04:17:53.383Z,13.45
2018-05-15T04:18:53.338Z,13.43
2018-05-15T04:19:53.299Z,13.37
2018-05-15T04:20:53.255Z,13.46
2018-05-15T04:21:53.214Z,13.37
2018-05-15T04:22:53.173Z,13.50
2018-05-15T04:23:53.128Z,13.49
2018-05-15T04:24:53.088Z,13.54
2018-05-15T04:25:53.048Z,13.42
2018-05-15T04:26:53.001Z,13.55
2018-05-15T04:27:52.960Z,13.57
2018-05-15T04:28:52.919Z,13.50
2018-05-15T04:29:52.884Z,13.54
2018-05-15T04:30:52.832Z,13.52
2018-05-15T04:31:52.791Z,13.60
2018-05-15T04:32:52.749Z,13.58
2018-05-15T04:33:52.708Z,13.55
2018-05-15T04:34:52.665Z,13.65
2018-05-15T04:35:52.623Z,13.65
2018-05-15T04:36:52.584Z,13.60
2018-05-15T04:37:52.540Z,13.57
2018-05-15T04:38:52.502Z,13.60
2018-05-15T04:39:52.457Z,13.70
2018-05-15T04:40:52.415Z,13.71
2018-05-15T04:41:52.371Z,13.65
2018-05-15T04:42:52.328Z,13.71
2018-05-15T04:43:52.504Z,13.78
2018-05-15T04:44:52.244Z,13.75
2018-05-15T04:45:52.204Z,13.82
2018-05-15T04:46:52.166Z,13.79
2018-05-15T04:47:52.117Z,13.85
2018-05-15T04:48:52.076Z,13.83
2018-05-15T04:49:52.034Z,13.87
2018-05-15T04:50:51.993Z,13.97
2018-05-15T04:51:51.955Z,13.93
2018-05-15T04:52:51.920Z,13.91
2018-05-15T04:53:51.886Z,13.91
2018-05-15T04:54:51.828Z,14.05
2018-05-15T04:55:51.782Z,14.01
2018-05-15T04:56:51.744Z,14.04
2018-05-15T04:57:51.700Z,14.05
2018-05-15T04:58:51.658Z,14.19
2018-05-15T04:59:51.613Z,14.22
2018-05-15T05:00:51.576Z,14.26
2018-05-15T05:01:51.532Z,14.30
2018-05-15T05:02:51.488Z,14.26
2018-05-15T05:03:51.491Z,14.38
2018-05-15T05:04:51.410Z,14.34
2018-05-15T05:05:51.365Z,14.53
2018-05-15T05:06:51.320Z,14.48
2018-05-15T05:07:51.278Z,14.41
2018-05-15T05:08:51.320Z,14.51
2018-05-15T05:09:51.197Z,14.55
2018-05-15T05:10:51.155Z,14.66
2018-05-15T05:11:51.190Z,14.58
2018-05-15T05:12:51.076Z,14.70
2018-05-15T05:13:51.042Z,14.73
2018-05-15T05:14:50.989Z,14.81
2018-05-15T05:15:50.949Z,14.68
2018-05-15T05:16:50.903Z,14.73
2018-05-15T05:17:50.861Z,14.74
2018-05-15T05:18:50.820Z,14.87
2018-05-15T05:19:50.779Z,14.78
2018-05-15T05:20:50.736Z,14.81
2018-05-15T05:21:50.842Z,14.90
2018-05-15T05:22:50.652Z,14.99
2018-05-15T05:23:50.609Z,14.94
2018-05-15T05:24:50.568Z,14.97
2018-05-15T05:25:50.529Z,15.05
2018-05-15T05:26:50.484Z,15.05
2018-05-15T05:27:50.446Z,15.04
2018-05-15T05:28:50.408Z,15.08
2018-05-15T05:29:50.361Z,15.10
2018-05-15T05:30:50.318Z,15.19
2018-05-15T05:31:50.277Z,15.25
2018-05-15T05:32:50.266Z,15.22
2018-05-15T05:33:50.194Z,15.27
2018-05-15T05:34:50.157Z,15.35
2018-05-15T05:35:50.111Z,15.35
2018-05-15T05:36:50.071Z,15.43
2018-05-15T05:37:50.033Z,15.43
2018-05-15T05:38:49.987Z,15.54
2018-05-15T05:39:49.947Z,15.51
2018-05-15T05:40:49.911Z,15.57
2018-05-15T05:41:49.867Z,15.57
2018-05-15T05:42:49.821Z,15.57
2018-05-15T05:43:49.782Z,15.66
2018-05-15T05:44:49.741Z,15.72
2018-05-15T05:45:49.697Z,15.70
2018-05-15T05:46:49.655Z,15.76
2018-05-15T05:47:49.614Z,15.76
2018-05-15T05:48:49.574Z,15.85
2018-05-15T05:49:49.531Z,15.96
2018-05-15T05:50:49.491Z,15.91
2018-05-15T05:51:49.451Z,15.94
2018-05-15T05:52:49.407Z,16.02
2018-05-15T05:53:49.368Z,16.00
2018-05-15T05:54:49.326Z,16.03
2018-05-15T05:55:49.288Z,16.10
2018-05-15T05:56:49.243Z,16.18
2018-05-15T05:57:49.203Z,16.17
2018-05-15T05:58:49.162Z,16.17
2018-05-15T05:59:49.122Z,16.12
2018-05-15T06:00:49.081Z,16.31
2018-05-15T06:01:49.038Z,16.26
2018-05-15T06:02:48.999Z,16.34
2018-05-15T06:03:48.955Z,16.28
2018-05-15T06:04:48.919Z,16.36
2018-05-15T06:05:48.876Z,16.40
2018-05-15T06:06:48.837Z,16.49
2018-05-15T06:07:48.797Z,16.51
2018-05-15T06:08:48.753Z,16.54
2018-05-15T06:09:48.713Z,16.58
2018-05-15T06:10:48.669Z,16.59
2018-05-15T06:11:48.632Z,16.68
2018-05-15T06:12:48.587Z,16.76
2018-05-15T06:13:48.549Z,16.73
2018-05-15T06:14:48.505Z,16.82
2018-05-15T06:15:48.465Z,16.82
2018-05-15T06:16:48.422Z,16.84
2018-05-15T06:17:48.385Z,16.87
2018-05-15T06:18:48.344Z,16.91
2018-05-15T06:19:48.320Z,16.87
2018-05-15T06:20:48.329Z,17.02
2018-05-15T06:21:48.224Z,17.09
2018-05-15T06:22:48.177Z,17.07
2018-05-15T06:23:48.136Z,17.09
2018-05-15T06:24:48.097Z,17.13
2018-05-15T06:25:48.056Z,17.19
2018-05-15T06:26:48.013Z,17.20
2018-05-15T06:27:47.977Z,17.24
2018-05-15T06:28:47.934Z,17.32
2018-05-15T06:29:47.892Z,17.27
2018-05-15T06:30:47.850Z,17.32
2018-05-15T06:31:47.820Z,17.42
2018-05-15T06:32:47.772Z,17.50
2018-05-15T06:33:47.730Z,17.54
2018-05-15T06:34:47.692Z,17.56
2018-05-15T06:35:47.650Z,17.57
2018-05-15T06:36:47.610Z,17.57
2018-05-15T06:37:47.566Z,17.63
2018-05-15T06:38:47.529Z,17.71
2018-05-15T06:39:47.485Z,17.72
2018-05-15T06:40:47.446Z,17.80
2018-05-15T06:41:47.406Z,17.84
2018-05-15T06:42:47.365Z,17.88
2018-05-15T06:43:47.324Z,17.90
2018-05-15T06:44:47.291Z,17.93
2018-05-15T06:45:47.244Z,18.05
2018-05-15T06:46:47.207Z,17.95
2018-05-15T06:47:47.161Z,18.06
2018-05-15T06:48:47.129Z,18.03
2018-05-15T06:49:47.082Z,18.06
2018-05-15T06:50:47.042Z,18.15
2018-05-15T06:51:47.001Z,18.18
2018-05-15T06:52:46.962Z,18.31
2018-05-15T06:53:46.924Z,18.28
2018-05-15T06:54:46.885Z,18.28
2018-05-15T06:55:46.843Z,18.34
2018-05-15T06:56:46.803Z,18.31
2018-05-15T06:57:46.764Z,18.41
2018-05-15T06:58:46.727Z,18.39
2018-05-15T06:59:46.680Z,18.43
2018-05-15T07:00:46.642Z,18.51
2018-05-15T07:01:46.622Z,18.45
2018-05-15T07:02:46.559Z,18.61
2018-05-15T07:03:46.521Z,18.66
2018-05-15T07:04:46.481Z,18.64
2018-05-15T07:05:46.443Z,18.67
2018-05-15T07:06:46.400Z,18.78
2018-05-15T07:07:46.442Z,18.82
2018-05-15T07:08:46.321Z,18.82
2018-05-15T07:09:46.280Z,18.88
2018-05-15T07:10:46.245Z,18.88
2018-05-15T07:11:46.210Z,18.98
2018-05-15T07:12:46.161Z,18.98
2018-05-15T07:13:46.127Z,19.05
2018-05-15T07:14:46.081Z,19.07
2018-05-15T07:15:46.041Z,19.11
2018-05-15T07:16:46.002Z,19.26
2018-05-15T07:17:45.965Z,19.23
2018-05-15T07:18:45.921Z,19.26
2018-05-15T07:19:45.883Z,19.38
2018-05-15T07:20:45.841Z,19.32
2018-05-15T07:21:45.802Z,19.47
2018-05-15T07:22:45.762Z,19.45
2018-05-15T07:23:45.722Z,19.53
2018-05-15T07:24:45.688Z,19.56
2018-05-15T07:25:45.643Z,19.56
2018-05-15T07:26:45.605Z,19.62
2018-05-15T07:27:45.565Z,19.74
2018-05-15T07:28:45.533Z,19.78
2018-05-15T07:29:45.487Z,19.81
2018-05-15T07:30:45.446Z,19.79
2018-05-15T07:31:45.407Z,19.92
2018-05-15T07:32:45.439Z,19.85
2018-05-15T07:33:45.328Z,19.99
2018-05-15T07:34:45.289Z,19.96
2018-05-15T07:35:45.250Z,20.08
2018-05-15T07:36:45.210Z,20.07
2018-05-15T07:37:45.172Z,20.10
2018-05-15T07:38:45.132Z,20.21
2018-05-15T07:39:45.094Z,20.19
2018-05-15T07:40:45.055Z,20.24
2018-05-15T07:41:45.013Z,20.36
2018-05-15T07:42:44.974Z,20.32
2018-05-15T07:43:44.935Z,20.46
2018-05-15T07:44:44.898Z,20.39
2018-05-15T07:45:44.859Z,20.53
2018-05-15T07:46:44.817Z,20.70
2018-05-15T07:47:44.780Z,20.77
2018-05-15T07:48:44.742Z,21.10
2018-05-15T07:49:44.702Z,21.50
2018-05-15T07:50:44.661Z,21.78
2018-05-15T07:51:44.623Z,22.22
2018-05-15T07:52:44.583Z,22.51
2018-05-15T07:53:44.665Z,22.71
2018-05-15T07:54:44.509Z,23.01
2018-05-15T07:55:44.468Z,23.13
2018-05-15T07:56:44.432Z,23.23
2018-05-15T07:57:44.391Z,23.45
2018-05-15T07:58:44.354Z,23.64
2018-05-15T07:59:44.313Z,23.79
2018-05-15T08:00:44.274Z,23.79
2018-05-15T08:01:44.239Z,23.96
2018-05-15T08:02:44.201Z,24.01
2018-05-15T08:03:44.163Z,24.16
2018-05-15T08:04:44.124Z,24.22
2018-05-15T08:05:44.085Z,24.21
2018-05-15T08:06:44.048Z,24.28
2018-05-15T08:07:44.009Z,24.37
2018-05-15T08:08:43.975Z,24.43
2018-05-15T08:09:43.937Z,24.47
2018-05-15T08:10:43.897Z,24.55
2018-05-15T08:11:43.858Z,24.65
2018-05-15T08:12:43.821Z,24.66
2018-05-15T08:13:43.787Z,24.66
2018-05-15T08:14:43.747Z,24.81
2018-05-15T08:15:43.708Z,24.85
2018-05-15T08:16:43.703Z,24.88
2018-05-15T08:17:43.638Z,24.99
2018-05-15T08:18:43.595Z,24.96
2018-05-15T08:19:43.560Z,24.96
2018-05-15T08:20:43.524Z,24.99
2018-05-15T08:21:43.486Z,25.03
2018-05-15T08:22:43.451Z,25.12
2018-05-15T08:23:43.412Z,25.03
2018-05-15T08:24:43.375Z,25.09
2018-05-15T08:25:43.337Z,25.14
2018-05-15T08:26:43.302Z,25.24
2018-05-15T08:27:43.265Z,25.29
2018-05-15T08:28:43.228Z,25.30
2018-05-15T08:29:43.194Z,25.36
2018-05-15T08:30:43.231Z,25.37
2018-05-15T08:31:43.120Z,25.51
2018-05-15T08:32:43.079Z,25.58
2018-05-15T08:33:43.043Z,25.56
2018-05-15T08:34:43.008Z,25.59
2018-05-15T08:35:42.969Z,25.61
2018-05-15T08:36:42.935Z,25.58
2018-05-15T08:37:42.964Z,25.66
2018-05-15T08:38:42.859Z,25.63
2018-05-15T08:39:44.676Z,25.62
2018-05-15T08:40:42.785Z,25.59
2018-05-15T08:41:42.751Z,25.73
2018-05-15T08:42:42.716Z,25.80
2018-05-15T08:43:42.677Z,25.77
2018-05-15T08:44:42.644Z,25.89
2018-05-15T08:45:42.605Z,25.91
2018-05-15T08:46:42.569Z,26.01
2018-05-15T08:47:42.533Z,26.06
2018-05-15T08:48:42.493Z,26.06
2018-05-15T08:49:42.457Z,26.10
2018-05-15T08:50:42.427Z,26.24
2018-05-15T08:51:42.390Z,26.19
2018-05-15T08:52:42.350Z,26.29
2018-05-15T08:53:42.315Z,26.29
2018-05-15T08:54:42.276Z,26.42
2018-05-15T08:55:42.247Z,26.45
2018-05-15T08:56:42.205Z,26.31
2018-05-15T08:57:42.167Z,26.23
2018-05-15T08:58:42.132Z,26.27
2018-05-15T08:59:42.094Z,26.30
2018-05-15T09:00:42.062Z,26.33
2018-05-15T09:01:42.031Z,26.41
2018-05-15T09:02:41.990Z,26.49
2018-05-15T09:03:41.951Z,26.46
2018-05-15T09:04:41.924Z,26.44
2018-05-15T09:05:41.884Z,26.41
2018-05-15T09:06:41.842Z,26.45
2018-05-15T09:07:41.813Z,26.36
2018-05-15T09:08:41.775Z,26.30
2018-05-15T09:09:41.739Z,26.34
2018-05-15T09:10:41.705Z,26.39
2018-05-15T09:11:41.665Z,26.42
2018-05-15T09:12:41.630Z,26.45
2018-05-15T09:13:41.595Z,26.56
2018-05-15T09:14:41.558Z,26.59
2018-05-15T09:15:41.528Z,26.51
2018-05-15T09:16:41.491Z,26.60
2018-05-15T09:17:41.454Z,26.59
2018-05-15T09:18:41.417Z,26.60
2018-05-15T09:19:41.380Z,26.74
2018-05-15T09:20:41.343Z,26.68
2018-05-15T09:21:41.306Z,26.82
2018-05-15T09:22:41.271Z,26.85
2018-05-15T09:23:41.233Z,26.89
2018-05-15T09:24:41.204Z,26.91
2018-05-15T09:25:41.173Z,26.92
2018-05-15T09:26:41.134Z,26.98
2018-05-15T09:27:41.091Z,27.00
2018-05-15T09:28:41.055Z,27.04
2018-05-15T09:29:41.024Z,27.03
2018-05-15T09:30:40.986Z,27.07
2018-05-15T09:31:40.955Z,27.07
2018-05-15T09:32:40.916Z,27.13
2018-05-15T09:33:40.885Z,27.15
2018-05-15T09:34:40.843Z,27.16
2018-05-15T09:35:40.812Z,27.19
2018-05-15T09:36:40.774Z,27.30
2018-05-15T09:37:40.740Z,27.28
2018-05-15T09:38:40.701Z,27.34
2018-05-15T09:39:40.667Z,27.28
2018-05-15T09:40:44.834Z,27.29
2018-05-15T09:41:40.596Z,27.40
2018-05-15T09:42:40.562Z,27.34
2018-05-15T09:43:40.526Z,27.26
2018-05-15T09:44:40.488Z,27.33
2018-05-15T09:45:40.455Z,27.37
2018-05-15T09:46:40.420Z,27.44
2018-05-15T09:47:40.386Z,27.47
2018-05-15T09:48:40.347Z,27.44
2018-05-15T09:49:40.311Z,27.45
2018-05-15T09:50:40.278Z,27.52
2018-05-15T09:51:40.246Z,27.43
2018-05-15T09:52:40.208Z,27.44
2018-05-15T09:53:40.175Z,27.58
2018-05-15T09:54:40.156Z,27.61
2018-05-15T09:55:40.103Z,27.67
2018-05-15T09:56:40.067Z,27.66
2018-05-15T09:57:40.033Z,27.75
2018-05-15T09:58:39.996Z,27.75
2018-05-15T09:59:39.960Z,27.78
2018-05-15T10:00:39.938Z,27.79
2018-05-15T10:01:39.893Z,27.83
2018-05-15T10:02:39.861Z,27.90
2018-05-15T10:03:39.823Z,27.79
2018-05-15T10:04:39.789Z,27.83
2018-05-15T10:05:39.756Z,27.71
2018-05-15T10:06:39.717Z,27.76
2018-05-15T10:07:39.729Z,27.79
2018-05-15T10:08:39.648Z,27.90
2018-05-15T10:09:39.610Z,27.85
2018-05-15T10:10:39.582Z,27.88
2018-05-15T10:11:39.548Z,27.85
2018-05-15T10:12:39.510Z,27.88
2018-05-15T10:13:39.473Z,27.88
2018-05-15T10:14:39.437Z,27.90
2018-05-15T10:15:39.404Z,27.97
2018-05-15T10:16:39.371Z,28.01
2018-05-15T10:17:39.337Z,28.16
2018-05-15T10:18:39.300Z,28.27
2018-05-15T10:19:39.266Z,28.34
2018-05-15T10:20:39.231Z,28.41
2018-05-15T10:21:39.193Z,28.50
2018-05-15T10:22:39.161Z,28.55
2018-05-15T10:23:39.133Z,28.64
2018-05-15T10:24:39.091Z,28.57
2018-05-15T10:25:39.058Z,28.72
2018-05-15T10:26:39.027Z,28.68
2018-05-15T10:27:39.001Z,28.75
2018-05-15T10:28:38.955Z,28.82
2018-05-15T10:29:38.919Z,28.90
2018-05-15T10:30:38.881Z,28.97
2018-05-15T10:31:38.848Z,28.96
2018-05-15T10:32:38.815Z,28.96
2018-05-15T10:33:38.780Z,29.02
2018-05-15T10:34:38.744Z,28.84
2018-05-15T10:35:38.717Z,28.84
2018-05-15T10:36:38.677Z,28.77
2018-05-15T10:37:38.646Z,28.80
2018-05-15T10:38:38.607Z,28.75
2018-05-15T10:39:38.576Z,28.75
2018-05-15T10:40:38.541Z,28.78
2018-05-15T10:41:38.506Z,28.80
2018-05-15T10:42:38.473Z,28.84
2018-05-15T10:43:38.438Z,28.90
2018-05-15T10:44:38.404Z,28.96
2018-05-15T10:45:38.372Z,29.00
2018-05-15T10:46:38.338Z,29.05
2018-05-15T10:47:38.298Z,29.09
2018-05-15T10:48:38.268Z,29.12
2018-05-15T10:49:38.231Z,29.12
2018-05-15T10:50:38.245Z,29.31
2018-05-15T10:51:38.163Z,29.22
2018-05-15T10:52:38.127Z,29.37
2018-05-15T10:53:38.101Z,29.42
2018-05-15T10:54:38.061Z,29.50
2018-05-15T10:55:38.028Z,29.49
2018-05-15T10:56:37.994Z,29.35
2018-05-15T10:57:37.962Z,29.35
2018-05-15T10:58:37.927Z,29.22
2018-05-15T10:59:37.896Z,29.25
2018-05-15T11:00:37.867Z,29.35
2018-05-15T11:01:37.824Z,29.49
2018-05-15T11:02:37.790Z,29.53
2018-05-15T11:03:37.756Z,29.58
2018-05-15T11:04:37.721Z,29.68
2018-05-15T11:05:37.686Z,29.87
2018-05-15T11:06:37.652Z,29.90
2018-05-15T11:07:37.618Z,29.96
2018-05-15T11:08:37.592Z,30.06
2018-05-15T11:09:37.552Z,30.06
2018-05-15T11:10:37.517Z,30.18
2018-05-15T11:11:37.483Z,30.13
2018-05-15T11:12:37.519Z,30.33
2018-05-15T11:13:37.420Z,30.38
2018-05-15T11:14:37.386Z,30.63
2018-05-15T11:15:37.354Z,30.73
2018-05-15T11:16:37.322Z,30.92
2018-05-15T11:17:37.287Z,31.17
2018-05-15T11:18:37.338Z,31.32
2018-05-15T11:19:37.219Z,31.55
2018-05-15T11:20:37.186Z,31.69
2018-05-15T11:21:37.150Z,31.86
2018-05-15T11:22:37.116Z,31.64
2018-05-15T11:23:37.085Z,31.78
2018-05-15T11:24:37.117Z,31.81
2018-05-15T11:25:37.017Z,31.97
2018-05-15T11:26:36.986Z,32.00
2018-05-15T11:27:36.950Z,32.11
2018-05-15T11:28:36.920Z,32.19
2018-05-15T11:29:36.885Z,32.41
2018-05-15T11:30:36.904Z,32.67
2018-05-15T11:31:36.823Z,32.85
2018-05-15T11:32:36.791Z,33.03
2018-05-15T11:33:36.759Z,33.00
2018-05-15T11:34:36.721Z,32.67
2018-05-15T11:35:36.699Z,32.79
2018-05-15T11:36:36.664Z,32.72
2018-05-15T11:37:36.631Z,32.88
2018-05-15T11:38:36.588Z,33.05
2018-05-15T11:39:36.555Z,33.01
2018-05-15T11:40:36.522Z,32.94
2018-05-15T11:41:36.557Z,33.08
2018-05-15T11:42:36.456Z,33.00
2018-05-15T11:43:36.422Z,33.09
2018-05-15T11:44:36.392Z,33.00
2018-05-15T11:45:36.357Z,32.82
2018-05-15T11:46:36.326Z,32.82
2018-05-15T11:47:36.502Z,32.93
2018-05-15T11:48:36.794Z,33.04
2018-05-15T11:49:37.055Z,33.28
2018-05-15T11:50:37.093Z,33.33
2018-05-15T11:51:37.040Z,33.55
2018-05-15T11:52:36.596Z,33.81
2018-05-15T11:53:36.091Z,34.10
2018-05-15T11:54:36.064Z,34.35
2018-05-15T11:55:42.710Z,34.56
2018-05-15T11:56:36.033Z,34.66
2018-05-15T11:57:35.963Z,34.66
2018-05-15T11:58:35.928Z,34.78
2018-05-15T11:59:35.896Z,35.08
2018-05-15T12:00:35.867Z,35.27
2018-05-15T12:01:35.836Z,35.35
2018-05-15T12:02:35.886Z,34.97
2018-05-15T12:03:35.767Z,34.53
2018-05-15T12:04:35.735Z,34.43
2018-05-15T12:05:35.705Z,34.63
2018-05-15T12:06:35.701Z,34.83
2018-05-15T12:07:35.639Z,35.10
2018-05-15T12:08:35.605Z,35.56
2018-05-15T12:09:35.574Z,35.82
2018-05-15T12:10:35.552Z,36.29
2018-05-15T12:11:35.508Z,36.50
2018-05-15T12:12:35.477Z,36.76
2018-05-15T12:13:35.445Z,36.92
2018-05-15T12:14:35.413Z,37.21
2018-05-15T12:15:35.380Z,37.28
2018-05-15T12:16:35.353Z,37.54
2018-05-15T12:17:35.320Z,37.82
2018-05-15T12:18:35.290Z,37.76
2018-05-15T12:19:35.258Z,37.83
2018-05-15T12:20:35.229Z,37.90
2018-05-15T12:21:35.193Z,38.09
2018-05-15T12:22:35.161Z,38.23
2018-05-15T12:23:35.128Z,38.36
2018-05-15T12:24:35.173Z,38.60
2018-05-15T12:25:35.063Z,38.65
2018-05-15T12:26:35.034Z,38.46
2018-05-15T12:27:35.004Z,38.50
2018-05-15T12:28:34.975Z,38.51
2018-05-15T12:29:34.941Z,38.57
2018-05-15T12:30:34.907Z,38.75
2018-05-15T12:31:34.880Z,39.03
2018-05-15T12:32:34.847Z,39.29
2018-05-15T12:33:34.824Z,39.33
2018-05-15T12:34:34.788Z,39.66
2018-05-15T12:35:34.760Z,39.60
2018-05-15T12:36:34.730Z,39.73
2018-05-15T12:37:34.695Z,39.85
2018-05-15T12:38:34.664Z,40.02
2018-05-15T12:39:34.637Z,40.13
2018-05-15T12:40:34.605Z,40.05
2018-05-15T12:41:34.595Z,39.93
2018-05-15T12:42:34.548Z,40.19
2018-05-15T12:43:34.527Z,40.34
2018-05-15T12:44:34.486Z,40.34
2018-05-15T12:45:34.464Z,40.52
2018-05-15T12:46:34.427Z,40.43
2018-05-15T12:47:34.401Z,40.49
2018-05-15T12:48:34.433Z,40.58
2018-05-15T12:49:34.340Z,40.74
2018-05-15T12:50:34.384Z,40.83
2018-05-15T12:51:34.282Z,40.95